Portada
METAR-TAF:

METAR-TAF

Aeropuertos :

Slidell Airport

Slidell, Luisiana, Estados Unidos

latitud: 30-20-35N, longitud: 089-49-19W, altitud: 9 m

Observación

El informe se hizo hace 27 minutos, a las 20:53 UTC
Viento 8 kt del sureste
Temperatura 24°C
Humedad 44%
Presión 1016 hPa
Visibilidad: 16.1 km
Cielo despejado

METAR: KASD 022053Z AUTO 14008KT 10SM CLR 24/11 A3000 RMK AO2 SLP160 T02440106 58019

Hora: 16:20 (21:20 UTC)

Pronóstico

El informe se hizo hace 3 horas y 50 minutos, a las 17:30 UTC
Pronóstico válido del 02 a las 18 UTC al 03 a las 18 UTC
Viento 6 kt del este-noreste
Visibilidad: 10 km
Cielo despejado

TAF: KASD 021730Z 0218/0318 07006KT P6SM SKC

Observaciones y pronósticos meteorológicos de más de 4000 aeropuertos (mensajes METAR y TAF).

Los puntos amarillos y rojos representan las estaciones disponibles.

Ponga el ratón en el punto deseado para ver el nombre de la estación.

Haga clic para ver las observaciones y los pronósticos meteorológicos.

Para cambiar el mapa : haga clic en los botones verdes con una cruz de color negro para hacer un zoom, en el botón verde con un guión para alejar o en las flechas verdes para mapas adyacentes.


METAR-TAF: